| time (UTC) | temp C | wind direction | speed KPH | gust KPH | rain 1hr cm | rain 24hr cm | rain mn cm | humidity % | barometer mb |
| 20260507040718 | 18 | 0 | 0.0 | 0.0 | 0.00 | 0.00 | 0.00 | 86 | 1010.0 |
| 20260507040222 | 18 | 212 | 0.0 | 1.6 | 0.00 | 0.00 | 0.00 | 86 | 1010.0 |
| 20260507035720 | 18 | 325 | 1.6 | 3.2 | 0.00 | 0.00 | 0.10 | 86 | 1010.0 |
| 20260507035221 | 17 | 10 | 1.6 | 3.2 | 0.00 | 0.00 | 0.10 | 86 | 1010.0 |
| 20260507034720 | 17 | 5 | 1.6 | 3.2 | 0.00 | 0.00 | 0.10 | 86 | 1009.0 |
| 20260507034221 | 18 | 5 | 0.0 | 1.6 | 0.00 | 0.00 | 0.10 | 86 | 1009.0 |
| 20260507033718 | 18 | 306 | 3.2 | 8.0 | 0.00 | 0.00 | 0.10 | 86 | 1009.0 |
| 20260507033218 | 18 | 324 | 1.6 | 4.8 | 0.00 | 0.00 | 0.10 | 85 | 1009.0 |
| 20260507032719 | 18 | 319 | 3.2 | 6.4 | 0.00 | 0.00 | 0.10 | 85 | 1009.0 |
| 20260507032218 | 18 | 312 | 4.8 | 6.4 | 0.00 | 0.00 | 0.10 | 84 | 1009.0 |
| 20260507031719 | 18 | 308 | 3.2 | 6.4 | 0.00 | 0.00 | 0.10 | 83 | 1009.0 |
| 20260507031219 | 18 | 298 | 1.6 | 3.2 | 0.00 | 0.00 | 0.10 | 84 | 1009.0 |
| 20260507030720 | 18 | 343 | 1.6 | 4.8 | 0.00 | 0.00 | 0.10 | 84 | 1010.0 |
| 20260507030220 | 18 | 307 | 6.4 | 9.7 | 0.00 | 0.00 | 0.10 | 84 | 1009.0 |
| 20260507025719 | 17 | 295 | 3.2 | 6.4 | 0.00 | 0.00 | 0.10 | 85 | 1009.0 |
| 20260507025220 | 17 | 314 | 3.2 | 6.4 | 0.00 | 0.00 | 0.10 | 86 | 1010.0 |
| 20260507024718 | 17 | 231 | 0.0 | 3.2 | 0.00 | 0.00 | 0.10 | 85 | 1009.0 |
| 20260507024221 | 18 | 235 | 3.2 | 6.4 | 0.00 | 0.00 | 0.10 | 84 | 1009.0 |
| 20260507023720 | 18 | 318 | 0.0 | 3.2 | 0.00 | 0.00 | 0.10 | 83 | 1010.0 |
| 20260507023222 | 18 | 259 | 1.6 | 3.2 | 0.00 | 0.00 | 0.10 | 83 | 1010.0 |
| 20260507022722 | 18 | 265 | 1.6 | 4.8 | 0.00 | 0.00 | 0.10 | 84 | 1010.0 |
| 20260507022220 | 18 | 328 | 0.0 | 1.6 | 0.00 | 0.00 | 0.10 | 83 | 1010.0 |
| 20260507021721 | 18 | 259 | 0.0 | 3.2 | 0.00 | 0.00 | 0.10 | 83 | 1010.0 |
| 20260507021223 | 18 | 298 | 0.0 | 1.6 | 0.00 | 0.00 | 0.10 | 83 | 1010.0 |
| 20260507020722 | 18 | 0 | 0.0 | 0.0 | 0.00 | 0.00 | 0.10 | 82 | 1010.0 |
| 20260507020222 | 19 | 0 | 0.0 | 0.0 | 0.00 | 0.00 | 0.10 | 81 | 1010.0 |
| 20260507015720 | 19 | 0 | 0.0 | 0.0 | 0.00 | 0.00 | 0.10 | 80 | 1010.0 |
| 20260507015220 | 19 | 214 | 3.2 | 4.8 | 0.00 | 0.00 | 0.10 | 80 | 1010.0 |
| 20260507014720 | 19 | 0 | 0.0 | 0.0 | 0.00 | 0.00 | 0.10 | 80 | 1010.0 |
| 20260507014223 | 19 | 319 | 0.0 | 3.2 | 0.00 | 0.00 | 0.10 | 80 | 1010.0 |
| 20260507013720 | 19 | 160 | 1.6 | 3.2 | 0.00 | 0.00 | 0.10 | 79 | 1010.0 |
| 20260507013220 | 19 | 163 | 1.6 | 3.2 | 0.00 | 0.00 | 0.10 | 79 | 1010.0 |
| 20260507012721 | 20 | 52 | 1.6 | 3.2 | 0.00 | 0.00 | 0.10 | 79 | 1010.0 |
| 20260507012223 | 20 | 308 | 4.8 | 8.0 | 0.00 | 0.00 | 0.10 | 79 | 1010.0 |
| 20260507011722 | 20 | 307 | 1.6 | 3.2 | 0.00 | 0.00 | 0.10 | 79 | 1010.0 |
| 20260507011222 | 20 | 294 | 0.0 | 0.0 | 0.00 | 0.00 | 0.10 | 79 | 1010.0 |
| 20260507010722 | 20 | 318 | 3.2 | 6.4 | 0.00 | 0.00 | 0.10 | 79 | 1010.0 |
| 20260507010222 | 20 | 251 | 0.0 | 3.2 | 0.00 | 0.00 | 0.10 | 79 | 1010.0 |
| 20260507005722 | 20 | 152 | 0.0 | 3.2 | 0.00 | 0.00 | 0.10 | 78 | 1010.0 |
| 20260507005222 | 20 | 341 | 0.0 | 3.2 | 0.00 | 0.00 | 0.10 | 78 | 1010.0 |
| 20260507004720 | 20 | 266 | 3.2 | 4.8 | 0.00 | 0.00 | 0.10 | 78 | 1010.0 |
| 20260507004221 | 20 | 9 | 1.6 | 6.4 | 0.00 | 0.00 | 0.10 | 77 | 1010.0 |
| 20260507003718 | 20 | 298 | 3.2 | 6.4 | 0.00 | 0.00 | 0.10 | 77 | 1010.0 |
| 20260507003222 | 20 | 205 | 0.0 | 3.2 | 0.00 | 0.00 | 0.10 | 77 | 1010.0 |
| 20260507002721 | 20 | 210 | 1.6 | 3.2 | 0.00 | 0.00 | 0.10 | 77 | 1010.0 |
| 20260507002223 | 20 | 333 | 0.0 | 1.6 | 0.00 | 0.00 | 0.10 | 77 | 1010.0 |
| 20260507001720 | 20 | 295 | 0.0 | 1.6 | 0.00 | 0.00 | 0.10 | 76 | 1010.0 |
| 20260507001221 | 20 | 308 | 3.2 | 6.4 | 0.00 | 0.00 | 0.10 | 76 | 1009.0 |
| 20260507000721 | 20 | 292 | 3.2 | 6.4 | 0.00 | 0.00 | 0.10 | 76 | 1009.0 |
| 20260507000219 | 20 | 328 | 6.4 | 8.0 | 0.00 | 0.00 | 0.10 | 76 | 1009.0 |
| 20260506235722 | 20 | 301 | 3.2 | 4.8 | 0.00 | 0.00 | 0.10 | 76 | 1009.0 |
| 20260506235222 | 20 | 318 | 3.2 | 6.4 | 0.00 | 0.00 | 0.10 | 75 | 1009.0 |
| 20260506234720 | 20 | 273 | 1.6 | 3.2 | 0.00 | 0.00 | 0.10 | 75 | 1009.0 |
| 20260506234222 | 21 | 2 | 1.6 | 4.8 | 0.00 | 0.00 | 0.10 | 74 | 1009.0 |
| 20260506233720 | 21 | 307 | 4.8 | 8.0 | 0.00 | 0.00 | 0.10 | 74 | 1009.0 |
| 20260506233220 | 21 | 241 | 4.8 | 8.0 | 0.00 | 0.00 | 0.10 | 74 | 1009.0 |
| 20260506232722 | 21 | 1 | 6.4 | 11.3 | 0.00 | 0.00 | 0.10 | 73 | 1009.0 |
| 20260506232221 | 21 | 342 | 0.0 | 4.8 | 0.00 | 0.00 | 0.10 | 73 | 1009.0 |
| 20260506231720 | 21 | 335 | 3.2 | 6.4 | 0.00 | 0.00 | 0.10 | 72 | 1009.0 |
| 20260506231218 | 21 | 315 | 8.0 | 14.5 | 0.00 | 0.00 | 0.10 | 72 | 1009.0 |
| 20260506230718 | 21 | 293 | 3.2 | 6.4 | 0.00 | 0.00 | 0.10 | 72 | 1009.0 |
| 20260506230222 | 21 | 326 | 4.8 | 9.7 | 0.00 | 0.00 | 0.10 | 72 | 1009.0 |
| 20260506225720 | 21 | 347 | 4.8 | 9.7 | 0.00 | 0.00 | 0.10 | 71 | 1009.0 |
| 20260506225222 | 21 | 320 | 4.8 | 9.7 | 0.00 | 0.00 | 0.10 | 71 | 1009.0 |
| 20260506224719 | 21 | 336 | 4.8 | 8.0 | 0.00 | 0.00 | 0.10 | 71 | 1009.0 |
| 20260506224221 | 21 | 258 | 1.6 | 6.4 | 0.00 | 0.00 | 0.10 | 71 | 1009.0 |
| 20260506223720 | 21 | 359 | 3.2 | 6.4 | 0.00 | 0.00 | 0.10 | 71 | 1009.0 |
| 20260506223223 | 21 | 337 | 6.4 | 9.7 | 0.00 | 0.00 | 0.10 | 71 | 1009.0 |
| 20260506222722 | 21 | 327 | 4.8 | 8.0 | 0.00 | 0.00 | 0.10 | 71 | 1009.0 |
| 20260506222222 | 21 | 314 | 4.8 | 9.7 | 0.00 | 0.00 | 0.10 | 70 | 1009.0 |
| 20260506221720 | 21 | 329 | 6.4 | 11.3 | 0.00 | 0.00 | 0.10 | 70 | 1009.0 |
| 20260506221218 | 21 | 321 | 6.4 | 9.7 | 0.00 | 0.00 | 0.10 | 70 | 1009.0 |
| 20260506220720 | 21 | 326 | 6.4 | 11.3 | 0.00 | 0.00 | 0.10 | 70 | 1009.0 |
| 20260506220219 | 21 | 319 | 11.3 | 19.3 | 0.00 | 0.00 | 0.10 | 71 | 1009.0 |
| 20260506215720 | 21 | 327 | 11.3 | 19.3 | 0.00 | 0.00 | 0.10 | 71 | 1009.0 |
| 20260506215221 | 21 | 313 | 9.7 | 16.1 | 0.00 | 0.00 | 0.10 | 70 | 1009.0 |
| 20260506214721 | 21 | 311 | 11.3 | 22.5 | 0.00 | 0.00 | 0.10 | 70 | 1009.0 |
| 20260506214222 | 21 | 313 | 9.7 | 16.1 | 0.00 | 0.00 | 0.10 | 70 | 1009.0 |
| 20260506213718 | 21 | 320 | 12.9 | 22.5 | 0.00 | 0.00 | 0.10 | 70 | 1009.0 |
| 20260506213222 | 21 | 324 | 9.7 | 14.5 | 0.00 | 0.00 | 0.10 | 70 | 1009.0 |
| 20260506212718 | 21 | 311 | 11.3 | 20.9 | 0.00 | 0.00 | 0.10 | 70 | 1009.0 |
| 20260506212220 | 21 | 317 | 14.5 | 22.5 | 0.00 | 0.00 | 0.10 | 70 | 1009.0 |
| 20260506211721 | 21 | 317 | 14.5 | 22.5 | 0.00 | 0.00 | 0.10 | 70 | 1009.0 |
| 20260506211221 | 21 | 321 | 16.1 | 24.1 | 0.00 | 0.00 | 0.10 | 70 | 1009.0 |
| 20260506210722 | 21 | 311 | 12.9 | 17.7 | 0.00 | 0.00 | 0.10 | 70 | 1009.0 |
| 20260506210231 | 21 | 302 | 14.5 | 24.1 | 0.00 | 0.00 | 0.10 | 70 | 1009.0 |
| 20260506205722 | 21 | 320 | 12.9 | 17.7 | 0.00 | 0.00 | 0.10 | 70 | 1009.0 |
| 20260506205219 | 21 | 306 | 9.7 | 17.7 | 0.00 | 0.00 | 0.10 | 71 | 1009.0 |
| 20260506204720 | 21 | 314 | 12.9 | 20.9 | 0.00 | 0.00 | 0.10 | 70 | 1009.0 |
| 20260506204220 | 21 | 310 | 9.7 | 16.1 | 0.00 | 0.00 | 0.10 | 70 | 1009.0 |
| 20260506203721 | 21 | 320 | 14.5 | 22.5 | 0.00 | 0.00 | 0.10 | 70 | 1009.0 |
| 20260506203218 | 21 | 322 | 9.7 | 14.5 | 0.00 | 0.00 | 0.10 | 70 | 1009.0 |
| 20260506202723 | 21 | 311 | 14.5 | 25.7 | 0.00 | 0.00 | 0.10 | 70 | 1009.0 |
| 20260506202222 | 21 | 313 | 11.3 | 20.9 | 0.00 | 0.00 | 0.10 | 69 | 1009.0 |
| 20260506201720 | 21 | 322 | 11.3 | 17.7 | 0.00 | 0.00 | 0.10 | 69 | 1009.0 |
| 20260506201220 | 21 | 319 | 16.1 | 32.2 | 0.00 | 0.00 | 0.10 | 69 | 1009.0 |
| 20260506200720 | 22 | 324 | 16.1 | 25.7 | 0.00 | 0.00 | 0.10 | 68 | 1009.0 |
| 20260506200220 | 21 | 319 | 14.5 | 22.5 | 0.00 | 0.00 | 0.10 | 69 | 1008.0 |
| 20260506195722 | 22 | 318 | 16.1 | 24.1 | 0.00 | 0.00 | 0.10 | 69 | 1009.0 |
| 20260506195221 | 22 | 318 | 9.7 | 19.3 | 0.00 | 0.00 | 0.10 | 69 | 1009.0 |
| 20260506194720 | 21 | 316 | 19.3 | 29.0 | 0.00 | 0.00 | 0.10 | 69 | 1009.0 |
| 20260506194220 | 22 | 321 | 11.3 | 22.5 | 0.00 | 0.00 | 0.10 | 69 | 1009.0 |
| 20260506193723 | 22 | 317 | 11.3 | 17.7 | 0.00 | 0.00 | 0.10 | 69 | 1009.0 |
| 20260506193224 | 22 | 325 | 11.3 | 19.3 | 0.00 | 0.00 | 0.10 | 68 | 1009.0 |
| 20260506192719 | 22 | 319 | 17.7 | 24.1 | 0.00 | 0.00 | 0.10 | 68 | 1009.0 |
| 20260506192219 | 22 | 308 | 12.9 | 19.3 | 0.00 | 0.00 | 0.10 | 69 | 1009.0 |
| 20260506191721 | 22 | 315 | 14.5 | 20.9 | 0.00 | 0.00 | 0.10 | 68 | 1009.0 |
| 20260506191222 | 22 | 299 | 14.5 | 25.7 | 0.00 | 0.00 | 0.10 | 69 | 1010.0 |
| 20260506190719 | 22 | 311 | 14.5 | 19.3 | 0.00 | 0.00 | 0.10 | 68 | 1010.0 |
| 20260506190220 | 21 | 320 | 14.5 | 19.3 | 0.00 | 0.00 | 0.10 | 69 | 1010.0 |
| 20260506185723 | 21 | 322 | 12.9 | 17.7 | 0.00 | 0.00 | 0.10 | 70 | 1010.0 |
| 20260506185220 | 21 | 324 | 11.3 | 20.9 | 0.00 | 0.00 | 0.10 | 71 | 1010.0 |
| 20260506184720 | 21 | 317 | 12.9 | 19.3 | 0.00 | 0.00 | 0.10 | 71 | 1010.0 |
| 20260506184220 | 21 | 302 | 14.5 | 24.1 | 0.00 | 0.00 | 0.10 | 71 | 1010.0 |
| 20260506183720 | 21 | 297 | 14.5 | 27.4 | 0.00 | 0.00 | 0.10 | 73 | 1010.0 |
| 20260506183221 | 21 | 318 | 19.3 | 35.4 | 0.03 | 0.00 | 0.10 | 72 | 1010.0 |
| 20260506182720 | 20 | 295 | 12.9 | 24.1 | 0.00 | 0.00 | 0.10 | 73 | 1010.0 |
| 20260506182220 | 20 | 318 | 19.3 | 27.4 | 0.00 | 0.00 | 0.10 | 74 | 1010.0 |
| 20260506181720 | 20 | 309 | 9.7 | 17.7 | 0.00 | 0.00 | 0.10 | 76 | 1010.0 |
| 20260506181219 | 20 | 314 | 16.1 | 22.5 | 0.00 | 0.00 | 0.10 | 76 | 1010.0 |
| 20260506180720 | 20 | 319 | 17.7 | 24.1 | 0.00 | 0.00 | 0.10 | 75 | 1010.0 |
| 20260506180219 | 20 | 316 | 20.9 | 27.4 | 0.03 | 0.00 | 0.10 | 75 | 1010.0 |
| 20260506175721 | 20 | 295 | 12.9 | 24.1 | 0.00 | 0.00 | 0.10 | 77 | 1010.0 |
| 20260506175220 | 20 | 315 | 16.1 | 24.1 | 0.00 | 0.00 | 0.10 | 78 | 1011.0 |
| 20260506174721 | 20 | 313 | 9.7 | 19.3 | 0.00 | 0.00 | 0.10 | 77 | 1011.0 |
| 20260506174222 | 20 | 319 | 16.1 | 24.1 | 0.15 | 0.00 | 0.10 | 77 | 1010.0 |
| 20260506173719 | 20 | 298 | 14.5 | 24.1 | 0.03 | 0.00 | 0.08 | 77 | 1010.0 |
| 20260506173222 | 20 | 307 | 19.3 | 27.4 | 0.00 | 0.00 | 0.08 | 76 | 1010.0 |
| 20260506172721 | 20 | 315 | 11.3 | 20.9 | 0.00 | 0.00 | 0.08 | 77 | 1010.0 |
| 20260506172219 | 20 | 312 | 14.5 | 19.3 | 0.00 | 0.00 | 0.15 | 76 | 1011.0 |
| 20260506171719 | 20 | 302 | 11.3 | 17.7 | 0.00 | 0.00 | 0.13 | 76 | 1011.0 |
| 20260506171220 | 20 | 316 | 14.5 | 22.5 | 0.00 | 0.00 | 0.13 | 77 | 1011.0 |
| 20260506170723 | 20 | 314 | 19.3 | 24.1 | 0.05 | 0.00 | 0.13 | 76 | 1011.0 |
| 20260506170221 | 19 | 270 | 11.3 | 17.7 | 0.00 | 0.00 | 0.13 | 77 | 1011.0 |
| 20260506165722 | 19 | 279 | 14.5 | 24.1 | 0.00 | 0.00 | 0.13 | 76 | 1011.0 |
| 20260506165223 | 19 | 259 | 14.5 | 19.3 | 0.00 | 0.00 | 0.13 | 77 | 1011.0 |
| 20260506164720 | 19 | 305 | 9.7 | 14.5 | 0.00 | 0.00 | 0.13 | 78 | 1011.0 |
| 20260506164221 | 19 | 311 | 11.3 | 25.7 | 0.00 | 0.00 | 0.13 | 76 | 1011.0 |
| 20260506163720 | 19 | 317 | 17.7 | 27.4 | 0.03 | 0.00 | 0.08 | 76 | 1012.0 |
| 20260506163221 | 19 | 316 | 14.5 | 20.9 | 0.00 | 0.00 | 0.08 | 76 | 1011.0 |
| 20260506162723 | 20 | 318 | 19.3 | 30.6 | 0.08 | 0.00 | 0.08 | 75 | 1012.0 |
| 20260506162220 | 20 | 321 | 11.3 | 19.3 | 0.10 | 0.00 | 0.05 | 74 | 1012.0 |
| 20260506161722 | 20 | 318 | 11.3 | 17.7 | 0.23 | 0.00 | 0.03 | 70 | 1012.0 |
| 20260506161221 | 21 | 312 | 14.5 | 20.9 | 0.00 | 0.00 | 0.03 | 70 | 1012.0 |
| 20260506160720 | 21 | 315 | 16.1 | 33.8 | 0.00 | 0.00 | 0.03 | 68 | 1012.0 |
| 20260506160223 | 22 | 314 | 17.7 | 33.8 | 0.00 | 0.00 | 0.03 | 65 | 1012.0 |
| 20260506155720 | 22 | 319 | 12.9 | 17.7 | 0.00 | 0.00 | 0.03 | 64 | 1012.0 |
| 20260506155221 | 22 | 311 | 12.9 | 17.7 | 0.00 | 0.00 | 0.03 | 63 | 1012.0 |
| 20260506154720 | 22 | 313 | 14.5 | 29.0 | 0.05 | 0.00 | 0.03 | 64 | 1012.0 |
| 20260506154222 | 22 | 319 | 11.3 | 17.7 | 0.00 | 0.00 | 0.03 | 62 | 1012.0 |
| 20260506153719 | 22 | 318 | 17.7 | 27.4 | 0.05 | 0.00 | 0.03 | 61 | 1012.0 |
| 20260506153219 | 22 | 306 | 17.7 | 29.0 | 0.03 | 0.00 | 0.00 | 60 | 1012.0 |
| 20260506152722 | 22 | 317 | 19.3 | 25.7 | 0.05 | 0.00 | 0.00 | 60 | 1012.0 |
| 20260506152219 | 22 | 317 | 12.9 | 22.5 | 0.00 | 0.00 | 0.00 | 60 | 1012.0 |
| 20260506151721 | 22 | 316 | 11.3 | 16.1 | 0.00 | 0.00 | 0.00 | 60 | 1012.0 |
| 20260506151220 | 22 | 311 | 14.5 | 20.9 | 0.00 | 0.00 | 0.00 | 60 | 1012.0 |
| 20260506150719 | 22 | 323 | 17.7 | 24.1 | 0.00 | 0.00 | 0.00 | 61 | 1012.0 |
| 20260506150224 | 22 | 325 | 16.1 | 20.9 | 0.00 | 0.00 | 0.00 | 60 | 1012.0 |
| 20260506145726 | 22 | 317 | 17.7 | 22.5 | 0.00 | 0.00 | 0.00 | 60 | 1012.0 |
| 20260506145220 | 22 | 318 | 19.3 | 30.6 | 0.03 | 0.00 | 0.00 | 60 | 1012.0 |
| 20260506144720 | 22 | 305 | 14.5 | 22.5 | 0.00 | 0.00 | 0.00 | 60 | 1012.0 |
| 20260506144221 | 22 | 322 | 14.5 | 19.3 | 0.00 | 0.00 | 0.00 | 60 | 1012.0 |
| 20260506143721 | 22 | 290 | 12.9 | 24.1 | 0.00 | 0.00 | 0.00 | 61 | 1012.0 |
| 20260506143221 | 22 | 312 | 14.5 | 20.9 | 0.00 | 0.00 | 0.00 | 60 | 1012.0 |
| 20260506142720 | 23 | 311 | 14.5 | 19.3 | 0.00 | 0.00 | 0.00 | 59 | 1012.0 |
| 20260506142222 | 23 | 286 | 9.7 | 16.1 | 0.00 | 0.00 | 0.00 | 60 | 1012.0 |
| 20260506141720 | 22 | 314 | 14.5 | 19.3 | 0.00 | 0.00 | 0.00 | 61 | 1012.0 |
| 20260506141223 | 22 | 310 | 9.7 | 14.5 | 0.00 | 0.00 | 0.00 | 61 | 1012.0 |
| 20260506140719 | 22 | 312 | 14.5 | 30.6 | 0.00 | 0.00 | 0.00 | 60 | 1012.0 |
| 20260506140220 | 22 | 314 | 12.9 | 25.7 | 0.00 | 0.00 | 0.00 | 61 | 1012.0 |
| 20260506135720 | 22 | 306 | 11.3 | 20.9 | 0.00 | 0.00 | 0.00 | 61 | 1012.0 |
| 20260506135219 | 22 | 314 | 11.3 | 17.7 | 0.00 | 0.00 | 0.00 | 62 | 1012.0 |
| 20260506134721 | 22 | 313 | 11.3 | 17.7 | 0.00 | 0.00 | 0.00 | 62 | 1012.0 |
| 20260506134221 | 22 | 316 | 11.3 | 14.5 | 0.00 | 0.00 | 0.00 | 61 | 1012.0 |
| 20260506133721 | 22 | 315 | 16.1 | 22.5 | 0.00 | 0.00 | 0.00 | 61 | 1012.0 |
| 20260506133222 | 21 | 322 | 14.5 | 22.5 | 0.00 | 0.00 | 0.00 | 62 | 1012.0 |
| 20260506132721 | 21 | 313 | 14.5 | 22.5 | 0.00 | 0.00 | 0.00 | 63 | 1012.0 |
| 20260506132221 | 21 | 310 | 17.7 | 27.4 | 0.00 | 0.00 | 0.00 | 63 | 1012.0 |
| 20260506131720 | 20 | 325 | 14.5 | 22.5 | 0.00 | 0.00 | 0.00 | 65 | 1012.0 |
| 20260506131220 | 20 | 312 | 17.7 | 27.4 | 0.00 | 0.00 | 0.00 | 66 | 1012.0 |
| 20260506130719 | 20 | 297 | 11.3 | 25.7 | 0.00 | 0.00 | 0.00 | 66 | 1012.0 |
| 20260506130221 | 20 | 320 | 16.1 | 25.7 | 0.00 | 0.00 | 0.00 | 66 | 1012.0 |
| 20260506125720 | 20 | 319 | 16.1 | 20.9 | 0.00 | 0.00 | 0.00 | 66 | 1012.0 |
| 20260506125226 | 20 | 315 | 14.5 | 19.3 | 0.00 | 0.00 | 0.00 | 67 | 1013.0 |
| 20260506124720 | 20 | 318 | 11.3 | 16.1 | 0.00 | 0.00 | 0.00 | 68 | 1012.0 |
| 20260506124218 | 20 | 317 | 14.5 | 19.3 | 0.00 | 0.00 | 0.00 | 68 | 1012.0 |
| 20260506123721 | 19 | 310 | 14.5 | 22.5 | 0.00 | 0.00 | 0.00 | 68 | 1012.0 |
| 20260506123220 | 19 | 314 | 16.1 | 24.1 | 0.00 | 0.00 | 0.00 | 68 | 1012.0 |
| 20260506122722 | 19 | 321 | 9.7 | 16.1 | 0.00 | 0.00 | 0.00 | 68 | 1012.0 |
| 20260506122220 | 19 | 309 | 16.1 | 20.9 | 0.00 | 0.00 | 0.00 | 68 | 1012.0 |
| 20260506121720 | 19 | 311 | 16.1 | 22.5 | 0.00 | 0.00 | 0.00 | 68 | 1012.0 |
| 20260506121220 | 19 | 318 | 11.3 | 16.1 | 0.00 | 0.00 | 0.00 | 68 | 1012.0 |
| 20260506120720 | 19 | 313 | 16.1 | 22.5 | 0.00 | 0.00 | 0.00 | 69 | 1012.0 |
| 20260506120223 | 19 | 296 | 17.7 | 30.6 | 0.00 | 0.00 | 0.00 | 68 | 1012.0 |
| 20260506115722 | 19 | 296 | 9.7 | 16.1 | 0.00 | 0.00 | 0.00 | 69 | 1012.0 |
| 20260506115220 | 19 | 305 | 11.3 | 19.3 | 0.00 | 0.00 | 0.00 | 68 | 1012.0 |
| 20260506114722 | 18 | 315 | 11.3 | 20.9 | 0.00 | 0.00 | 0.00 | 69 | 1012.0 |
| 20260506114218 | 18 | 308 | 12.9 | 20.9 | 0.00 | 0.00 | 0.00 | 70 | 1012.0 |
| 20260506113719 | 18 | 312 | 11.3 | 20.9 | 0.00 | 0.00 | 0.00 | 70 | 1012.0 |
| 20260506113218 | 18 | 278 | 9.7 | 16.1 | 0.00 | 0.00 | 0.00 | 70 | 1012.0 |
| 20260506112722 | 18 | 311 | 11.3 | 16.1 | 0.00 | 0.00 | 0.00 | 70 | 1012.0 |
| 20260506112223 | 18 | 307 | 11.3 | 16.1 | 0.00 | 0.00 | 0.00 | 70 | 1012.0 |
| 20260506111720 | 18 | 277 | 8.0 | 14.5 | 0.00 | 0.00 | 0.00 | 69 | 1012.0 |
| 20260506111219 | 18 | 261 | 9.7 | 16.1 | 0.00 | 0.00 | 0.00 | 69 | 1012.0 |
| 20260506110720 | 18 | 303 | 8.0 | 19.3 | 0.00 | 0.00 | 0.00 | 70 | 1012.0 |
| 20260506110220 | 18 | 288 | 8.0 | 14.5 | 0.00 | 0.00 | 0.00 | 70 | 1012.0 |
| 20260506105722 | 18 | 275 | 8.0 | 12.9 | 0.00 | 0.00 | 0.00 | 71 | 1012.0 |
| 20260506105220 | 17 | 298 | 9.7 | 12.9 | 0.00 | 0.00 | 0.00 | 72 | 1012.0 |
| 20260506104720 | 17 | 278 | 4.8 | 8.0 | 0.00 | 0.00 | 0.00 | 72 | 1012.0 |
| 20260506104222 | 17 | 266 | 8.0 | 11.3 | 0.00 | 0.00 | 0.00 | 73 | 1012.0 |
| 20260506103723 | 17 | 281 | 9.7 | 17.7 | 0.00 | 0.00 | 0.00 | 73 | 1012.0 |
| 20260506103223 | 17 | 275 | 9.7 | 20.9 | 0.00 | 0.00 | 0.00 | 73 | 1012.0 |
| 20260506102718 | 17 | 288 | 6.4 | 12.9 | 0.00 | 0.00 | 0.00 | 73 | 1012.0 |
| 20260506102222 | 17 | 305 | 9.7 | 17.7 | 0.00 | 0.00 | 0.00 | 73 | 1012.0 |
| 20260506101722 | 17 | 316 | 9.7 | 12.9 | 0.00 | 0.00 | 0.00 | 72 | 1012.0 |
| 20260506101222 | 17 | 300 | 8.0 | 14.5 | 0.00 | 0.00 | 0.00 | 72 | 1012.0 |
| 20260506100720 | 17 | 313 | 9.7 | 17.7 | 0.00 | 0.00 | 0.00 | 73 | 1012.0 |
| 20260506100221 | 17 | 262 | 9.7 | 16.1 | 0.00 | 0.00 | 0.00 | 73 | 1012.0 |
| 20260506095720 | 17 | 266 | 11.3 | 14.5 | 0.00 | 0.00 | 0.00 | 73 | 1012.0 |
| 20260506095222 | 17 | 266 | 14.5 | 20.9 | 0.00 | 0.00 | 0.00 | 72 | 1012.0 |
| 20260506094720 | 17 | 266 | 8.0 | 16.1 | 0.00 | 0.00 | 0.00 | 73 | 1012.0 |
| 20260506091720 | 17 | 310 | 9.7 | 27.4 | 0.00 | 0.00 | 0.00 | 71 | 1012.0 |
| 20260506091221 | 17 | 256 | 9.7 | 20.9 | 0.00 | 0.00 | 0.00 | 72 | 1012.0 |
| 20260506090719 | 17 | 268 | 11.3 | 17.7 | 0.00 | 0.00 | 0.00 | 71 | 1012.0 |
| 20260506090220 | 17 | 305 | 9.7 | 14.5 | 0.00 | 0.00 | 0.00 | 71 | 1012.0 |
| 20260506085720 | 17 | 275 | 9.7 | 12.9 | 0.00 | 0.00 | 0.00 | 71 | 1012.0 |
| 20260506085220 | 17 | 286 | 8.0 | 12.9 | 0.00 | 0.00 | 0.00 | 71 | 1012.0 |
| 20260506084722 | 18 | 278 | 9.7 | 16.1 | 0.00 | 0.00 | 0.00 | 71 | 1012.0 |
| 20260506084220 | 18 | 302 | 9.7 | 17.7 | 0.00 | 0.00 | 0.00 | 71 | 1012.0 |
| 20260506083721 | 18 | 267 | 11.3 | 17.7 | 0.00 | 0.00 | 0.00 | 71 | 1012.0 |
| 20260506083222 | 18 | 276 | 11.3 | 19.3 | 0.00 | 0.00 | 0.00 | 71 | 1012.0 |
| 20260506082720 | 18 | 292 | 9.7 | 14.5 | 0.00 | 0.00 | 0.00 | 71 | 1012.0 |
| 20260506082218 | 18 | 294 | 8.0 | 17.7 | 0.00 | 0.00 | 0.00 | 71 | 1012.0 |
| 20260506081720 | 18 | 289 | 8.0 | 14.5 | 0.00 | 0.00 | 0.00 | 71 | 1012.0 |
| 20260506081222 | 18 | 298 | 9.7 | 17.7 | 0.00 | 0.00 | 0.00 | 71 | 1012.0 |
| 20260506080720 | 18 | 310 | 9.7 | 17.7 | 0.00 | 0.00 | 0.00 | 71 | 1012.0 |
| 20260506080224 | 18 | 309 | 9.7 | 16.1 | 0.00 | 0.00 | 0.00 | 71 | 1012.0 |
| 20260506073221 | 18 | 281 | 9.7 | 14.5 | 0.00 | 0.00 | 0.00 | 73 | 1012.0 |
| 20260506072720 | 18 | 310 | 9.7 | 14.5 | 0.00 | 0.00 | 0.00 | 74 | 1012.0 |
| 20260506072222 | 18 | 315 | 8.0 | 12.9 | 0.00 | 0.00 | 0.00 | 74 | 1012.0 |
| 20260506071721 | 18 | 303 | 8.0 | 11.3 | 0.00 | 0.00 | 0.00 | 74 | 1012.0 |
| 20260506070733 | 18 | 314 | 6.4 | 11.3 | 0.00 | 0.00 | 0.00 | 75 | 1012.0 |
| 20260506070222 | 18 | 295 | 8.0 | 12.9 | 0.00 | 0.00 | 0.00 | 75 | 1012.0 |
| 20260506062219 | 18 | 270 | 6.4 | 14.5 | 0.00 | 0.00 | 0.00 | 75 | 1013.0 |
| 20260506061720 | 18 | 273 | 8.0 | 14.5 | 0.00 | 0.00 | 0.00 | 75 | 1013.0 |
| 20260506061224 | 18 | 269 | 9.7 | 11.3 | 0.00 | 0.00 | 0.00 | 75 | 1013.0 |
| 20260506060720 | 18 | 275 | 8.0 | 12.9 | 0.00 | 0.00 | 0.00 | 75 | 1013.0 |
| 20260506060220 | 18 | 256 | 12.9 | 14.5 | 0.00 | 0.00 | 0.00 | 76 | 1013.0 |